sensor_id;sensor_type;location;lat;lon;timestamp;pressure;altitude;pressure_sealevel;temperature;humidity
46944;BME280;32678;43.852;25.952;2023-02-25T00:01:13;100497.28;;;9.76;69.10
46944;BME280;32678;43.852;25.952;2023-02-25T00:06:13;100498.78;;;9.83;68.89
46944;BME280;32678;43.852;25.952;2023-02-25T00:11:12;100484.06;;;10.05;68.60
46944;BME280;32678;43.852;25.952;2023-02-25T00:16:24;100471.53;;;9.09;69.86
46944;BME280;32678;43.852;25.952;2023-02-25T00:21:22;100467.72;;;8.93;72.09
46944;BME280;32678;43.852;25.952;2023-02-25T00:26:19;100460.03;;;8.87;70.80
46944;BME280;32678;43.852;25.952;2023-02-25T00:31:17;100454.72;;;8.90;70.42
46944;BME280;32678;43.852;25.952;2023-02-25T00:36:15;100469.50;;;8.33;70.72
46944;BME280;32678;43.852;25.952;2023-02-25T00:41:15;100460.50;;;7.79;73.53
46944;BME280;32678;43.852;25.952;2023-02-25T00:46:13;100448.16;;;7.86;74.85
46944;BME280;32678;43.852;25.952;2023-02-25T00:51:10;100447.78;;;7.98;75.05
46944;BME280;32678;43.852;25.952;2023-02-25T00:56:08;100426.59;;;7.46;76.72
46944;BME280;32678;43.852;25.952;2023-02-25T01:01:13;100422.88;;;7.20;78.15
46944;BME280;32678;43.852;25.952;2023-02-25T01:06:11;100402.78;;;7.24;79.58
46944;BME280;32678;43.852;25.952;2023-02-25T01:11:11;100391.16;;;7.37;79.72
46944;BME280;32678;43.852;25.952;2023-02-25T01:16:10;100396.66;;;7.26;81.10
46944;BME280;32678;43.852;25.952;2023-02-25T01:21:14;100431.78;;;7.79;78.78
46944;BME280;32678;43.852;25.952;2023-02-25T01:26:12;100428.59;;;8.01;76.27
46944;BME280;32678;43.852;25.952;2023-02-25T01:31:14;100395.25;;;8.10;74.30
46944;BME280;32678;43.852;25.952;2023-02-25T01:36:14;100411.06;;;7.73;73.90
46944;BME280;32678;43.852;25.952;2023-02-25T01:41:10;100397.94;;;7.76;74.46
46944;BME280;32678;43.852;25.952;2023-02-25T01:46:07;100400.88;;;7.30;74.66
46944;BME280;32678;43.852;25.952;2023-02-25T01:51:05;100411.63;;;7.18;74.00
46944;BME280;32678;43.852;25.952;2023-02-25T01:56:04;100400.34;;;6.44;75.90
46944;BME280;32678;43.852;25.952;2023-02-25T02:01:00;100384.50;;;6.13;78.60
46944;BME280;32678;43.852;25.952;2023-02-25T02:06:02;100382.56;;;5.78;82.39
46944;BME280;32678;43.852;25.952;2023-02-25T02:11:02;100373.16;;;5.25;86.01
46944;BME280;32678;43.852;25.952;2023-02-25T02:16:06;100352.59;;;5.13;87.44
46944;BME280;32678;43.852;25.952;2023-02-25T02:21:10;100378.50;;;5.17;89.02
46944;BME280;32678;43.852;25.952;2023-02-25T02:26:26;100374.91;;;5.24;89.61
46944;BME280;32678;43.852;25.952;2023-02-25T02:31:43;100355.84;;;5.24;90.78
46944;BME280;32678;43.852;25.952;2023-02-25T02:36:47;100364.38;;;5.32;90.79
46944;BME280;32678;43.852;25.952;2023-02-25T02:41:45;100364.72;;;5.61;88.55
46944;BME280;32678;43.852;25.952;2023-02-25T02:46:47;100349.81;;;5.68;88.76
46944;BME280;32678;43.852;25.952;2023-02-25T02:51:47;100352.53;;;5.62;88.45
46944;BME280;32678;43.852;25.952;2023-02-25T02:56:47;100351.09;;;5.93;88.71
46944;BME280;32678;43.852;25.952;2023-02-25T03:01:48;100348.47;;;5.95;88.20
46944;BME280;32678;43.852;25.952;2023-02-25T03:06:48;100349.28;;;6.35;87.08
46944;BME280;32678;43.852;25.952;2023-02-25T03:11:46;100365.28;;;6.20;82.75
46944;BME280;32678;43.852;25.952;2023-02-25T03:16:44;100361.56;;;5.43;85.38
46944;BME280;32678;43.852;25.952;2023-02-25T03:21:46;100355.19;;;5.59;87.15
46944;BME280;32678;43.852;25.952;2023-02-25T03:26:44;100336.78;;;6.14;86.64
46944;BME280;32678;43.852;25.952;2023-02-25T03:31:44;100347.47;;;6.77;84.71
46944;BME280;32678;43.852;25.952;2023-02-25T03:36:44;100349.22;;;6.77;82.46
46944;BME280;32678;43.852;25.952;2023-02-25T03:41:42;100351.69;;;7.18;81.79
46944;BME280;32678;43.852;25.952;2023-02-25T03:46:42;100338.03;;;7.41;79.21
46944;BME280;32678;43.852;25.952;2023-02-25T03:51:40;100333.22;;;6.92;76.09
46944;BME280;32678;43.852;25.952;2023-02-25T03:56:44;100336.81;;;6.11;79.25
46944;BME280;32678;43.852;25.952;2023-02-25T04:01:43;100340.59;;;5.96;81.19
46944;BME280;32678;43.852;25.952;2023-02-25T04:06:44;100323.25;;;6.35;81.28
46944;BME280;32678;43.852;25.952;2023-02-25T04:11:43;100311.50;;;6.91;80.85
46944;BME280;32678;43.852;25.952;2023-02-25T04:16:40;100301.91;;;7.27;78.93
46944;BME280;32678;43.852;25.952;2023-02-25T04:21:37;100305.09;;;6.34;77.46
46944;BME280;32678;43.852;25.952;2023-02-25T04:26:35;100302.59;;;6.29;78.35
46944;BME280;32678;43.852;25.952;2023-02-25T04:31:33;100301.19;;;6.15;78.75
46944;BME280;32678;43.852;25.952;2023-02-25T04:36:33;100302.91;;;6.16;78.16
46944;BME280;32678;43.852;25.952;2023-02-25T04:41:34;100307.81;;;5.45;80.29
46944;BME280;32678;43.852;25.952;2023-02-25T04:46:32;100287.88;;;5.44;82.56
46944;BME280;32678;43.852;25.952;2023-02-25T04:51:30;100272.31;;;5.85;82.22
46944;BME280;32678;43.852;25.952;2023-02-25T04:56:27;100271.84;;;6.45;81.87
46944;BME280;32678;43.852;25.952;2023-02-25T05:01:24;100278.53;;;6.18;78.05
46944;BME280;32678;43.852;25.952;2023-02-25T05:06:21;100267.91;;;6.64;78.42
46944;BME280;32678;43.852;25.952;2023-02-25T05:11:19;100267.19;;;6.93;77.25
46944;BME280;32678;43.852;25.952;2023-02-25T05:16:17;100262.09;;;7.19;76.31
46944;BME280;32678;43.852;25.952;2023-02-25T05:21:15;100270.47;;;7.32;75.53
46944;BME280;32678;43.852;25.952;2023-02-25T05:26:12;100286.44;;;7.52;74.34
46944;BME280;32678;43.852;25.952;2023-02-25T05:31:10;100266.78;;;7.39;72.60
46944;BME280;32678;43.852;25.952;2023-02-25T05:36:08;100273.16;;;7.60;71.76
46944;BME280;32678;43.852;25.952;2023-02-25T05:41:09;100267.84;;;7.63;71.79
46944;BME280;32678;43.852;25.952;2023-02-25T05:46:07;100270.66;;;7.57;70.89
46944;BME280;32678;43.852;25.952;2023-02-25T05:51:11;100269.78;;;7.56;71.22
46944;BME280;32678;43.852;25.952;2023-02-25T05:56:10;100260.44;;;7.78;71.20
46944;BME280;32678;43.852;25.952;2023-02-25T06:01:08;100260.00;;;7.92;70.66
46944;BME280;32678;43.852;25.952;2023-02-25T06:06:08;100259.97;;;7.94;69.79
46944;BME280;32678;43.852;25.952;2023-02-25T06:11:12;100266.66;;;7.44;70.76
46944;BME280;32678;43.852;25.952;2023-02-25T06:16:12;100262.72;;;7.60;71.26
46944;BME280;32678;43.852;25.952;2023-02-25T06:21:11;100282.88;;;7.84;71.47
46944;BME280;32678;43.852;25.952;2023-02-25T06:26:09;100290.44;;;7.93;70.08
46944;BME280;32678;43.852;25.952;2023-02-25T06:31:13;100286.19;;;7.91;69.55
46944;BME280;32678;43.852;25.952;2023-02-25T06:36:11;100273.78;;;7.97;69.14
46944;BME280;32678;43.852;25.952;2023-02-25T06:41:13;100261.31;;;7.77;68.88
46944;BME280;32678;43.852;25.952;2023-02-25T06:46:12;100246.13;;;7.33;70.26
46944;BME280;32678;43.852;25.952;2023-02-25T06:51:12;100242.31;;;7.43;70.35
46944;BME280;32678;43.852;25.952;2023-02-25T06:56:12;100249.69;;;7.60;70.21
46944;BME280;32678;43.852;25.952;2023-02-25T07:01:11;100240.22;;;7.85;70.11
46944;BME280;32678;43.852;25.952;2023-02-25T07:06:09;100235.44;;;7.99;69.87
46944;BME280;32678;43.852;25.952;2023-02-25T07:11:10;100224.75;;;7.79;70.51
46944;BME280;32678;43.852;25.952;2023-02-25T07:16:10;100214.81;;;8.19;70.52
46944;BME280;32678;43.852;25.952;2023-02-25T07:21:07;100192.91;;;8.23;69.19
46944;BME280;32678;43.852;25.952;2023-02-25T07:26:04;100190.53;;;7.88;69.69
46944;BME280;32678;43.852;25.952;2023-02-25T07:31:03;100190.22;;;7.99;71.21
46944;BME280;32678;43.852;25.952;2023-02-25T07:36:01;100188.16;;;8.08;71.36
46944;BME280;32678;43.852;25.952;2023-02-25T07:41:02;100177.84;;;8.32;71.78
46944;BME280;32678;43.852;25.952;2023-02-25T07:45:59;100168.31;;;8.57;70.94
46944;BME280;32678;43.852;25.952;2023-02-25T07:50:59;100158.22;;;8.71;70.91
46944;BME280;32678;43.852;25.952;2023-02-25T07:55:59;100154.88;;;8.92;71.14
46944;BME280;32678;43.852;25.952;2023-02-25T08:00:57;100146.81;;;8.98;70.69
46944;BME280;32678;43.852;25.952;2023-02-25T08:06:53;100135.44;;;9.23;71.53
46944;BME280;32678;43.852;25.952;2023-02-25T08:11:50;100131.63;;;9.31;71.99
46944;BME280;32678;43.852;25.952;2023-02-25T08:16:47;100126.59;;;9.48;73.11
46944;BME280;32678;43.852;25.952;2023-02-25T08:21:45;100120.78;;;9.64;74.14
46944;BME280;32678;43.852;25.952;2023-02-25T08:27:07;100123.41;;;9.85;74.65
46944;BME280;32678;43.852;25.952;2023-02-25T08:32:08;100108.13;;;9.96;74.89
46944;BME280;32678;43.852;25.952;2023-02-25T08:37:07;100101.75;;;10.02;75.38
46944;BME280;32678;43.852;25.952;2023-02-25T08:42:05;100102.28;;;10.32;75.09
46944;BME280;32678;43.852;25.952;2023-02-25T08:47:06;100104.47;;;10.42;75.13
46944;BME280;32678;43.852;25.952;2023-02-25T08:52:11;100100.84;;;10.25;76.95
46944;BME280;32678;43.852;25.952;2023-02-25T08:57:09;100097.44;;;10.23;77.76
46944;BME280;32678;43.852;25.952;2023-02-25T09:02:09;100103.59;;;10.62;77.83
46944;BME280;32678;43.852;25.952;2023-02-25T09:07:10;100099.94;;;11.05;77.53
46944;BME280;32678;43.852;25.952;2023-02-25T09:12:08;100095.91;;;11.17;78.31
46944;BME280;32678;43.852;25.952;2023-02-25T09:17:05;100079.03;;;11.22;78.60
46944;BME280;32678;43.852;25.952;2023-02-25T09:22:03;100068.69;;;11.38;77.84
46944;BME280;32678;43.852;25.952;2023-02-25T09:26:59;100063.56;;;11.73;76.47
46944;BME280;32678;43.852;25.952;2023-02-25T09:32:07;100061.25;;;11.65;77.29
46944;BME280;32678;43.852;25.952;2023-02-25T09:37:05;100056.53;;;11.90;76.64
46944;BME280;32678;43.852;25.952;2023-02-25T09:42:05;100048.09;;;11.84;77.26
46944;BME280;32678;43.852;25.952;2023-02-25T09:47:05;100041.22;;;11.98;77.13
46944;BME280;32678;43.852;25.952;2023-02-25T09:52:14;100032.13;;;12.05;77.21
46944;BME280;32678;43.852;25.952;2023-02-25T09:57:15;100022.94;;;12.14;76.82
46944;BME280;32678;43.852;25.952;2023-02-25T10:02:18;100012.84;;;12.22;76.39
46944;BME280;32678;43.852;25.952;2023-02-25T10:07:18;100022.06;;;12.13;76.69
46944;BME280;32678;43.852;25.952;2023-02-25T10:12:20;100028.56;;;12.24;76.28
46944;BME280;32678;43.852;25.952;2023-02-25T10:17:22;100004.78;;;12.09;76.76
46944;BME280;32678;43.852;25.952;2023-02-25T10:22:27;100015.50;;;12.05;77.51
46944;BME280;32678;43.852;25.952;2023-02-25T10:27:27;99995.50;;;12.20;77.98
46944;BME280;32678;43.852;25.952;2023-02-25T10:32:26;99976.72;;;12.10;79.21
46944;BME280;32678;43.852;25.952;2023-02-25T10:37:27;99948.00;;;12.23;78.85
46944;BME280;32678;43.852;25.952;2023-02-25T10:42:26;99931.91;;;12.46;79.58
46944;BME280;32678;43.852;25.952;2023-02-25T10:47:24;99936.44;;;12.42;78.37
46944;BME280;32678;43.852;25.952;2023-02-25T10:52:25;99949.44;;;12.45;78.31
46944;BME280;32678;43.852;25.952;2023-02-25T10:57:24;99955.19;;;12.52;78.14
46944;BME280;32678;43.852;25.952;2023-02-25T11:02:22;99948.97;;;12.37;78.57
46944;BME280;32678;43.852;25.952;2023-02-25T11:07:29;99907.78;;;12.38;77.49
46944;BME280;32678;43.852;25.952;2023-02-25T11:12:30;99917.47;;;12.53;77.78
46944;BME280;32678;43.852;25.952;2023-02-25T11:17:27;99908.59;;;12.55;77.72
46944;BME280;32678;43.852;25.952;2023-02-25T11:22:28;99909.31;;;12.57;77.78
46944;BME280;32678;43.852;25.952;2023-02-25T11:28:42;99898.66;;;12.61;77.84
46944;BME280;32678;43.852;25.952;2023-02-25T11:34:11;99873.69;;;12.52;78.20
46944;BME280;32678;43.852;25.952;2023-02-25T11:39:38;99868.63;;;12.65;78.71
46944;BME280;32678;43.852;25.952;2023-02-25T11:44:47;99899.69;;;12.74;78.20
46944;BME280;32678;43.852;25.952;2023-02-25T11:49:48;99909.53;;;12.70;78.13
46944;BME280;32678;43.852;25.952;2023-02-25T11:54:51;99913.16;;;12.68;76.65
46944;BME280;32678;43.852;25.952;2023-02-25T11:59:54;99911.19;;;12.71;75.34
46944;BME280;32678;43.852;25.952;2023-02-25T12:15:49;99882.97;;;12.75;73.77
46944;BME280;32678;43.852;25.952;2023-02-25T12:21:13;99894.09;;;12.80;73.44
46944;BME280;32678;43.852;25.952;2023-02-25T12:26:18;99896.00;;;12.76;72.23
46944;BME280;32678;43.852;25.952;2023-02-25T12:36:48;99884.91;;;12.71;72.71
46944;BME280;32678;43.852;25.952;2023-02-25T12:41:54;99891.00;;;12.72;72.99
46944;BME280;32678;43.852;25.952;2023-02-25T12:46:58;99894.50;;;12.72;72.91
46944;BME280;32678;43.852;25.952;2023-02-25T12:52:03;99893.63;;;12.72;72.90
46944;BME280;32678;43.852;25.952;2023-02-25T12:57:12;99889.22;;;12.72;73.14
46944;BME280;32678;43.852;25.952;2023-02-25T13:07:33;99893.56;;;12.73;72.54
46944;BME280;32678;43.852;25.952;2023-02-25T13:12:40;99894.34;;;12.75;72.40
46944;BME280;32678;43.852;25.952;2023-02-25T13:17:46;99886.66;;;12.71;72.59
46944;BME280;32678;43.852;25.952;2023-02-25T13:22:52;99878.88;;;12.69;72.51
46944;BME280;32678;43.852;25.952;2023-02-25T13:33:18;99881.59;;;12.68;72.75
46944;BME280;32678;43.852;25.952;2023-02-25T13:38:29;99879.47;;;12.58;73.00
46944;BME280;32678;43.852;25.952;2023-02-25T13:48:41;99838.50;;;12.54;73.14
46944;BME280;32678;43.852;25.952;2023-02-25T13:53:50;99854.28;;;12.70;72.87
46944;BME280;32678;43.852;25.952;2023-02-25T13:58:51;99840.63;;;12.64;72.91
46944;BME280;32678;43.852;25.952;2023-02-25T14:09:11;99847.34;;;12.69;73.01
46944;BME280;32678;43.852;25.952;2023-02-25T14:19:33;99832.16;;;12.58;73.62
46944;BME280;32678;43.852;25.952;2023-02-25T14:24:42;99817.88;;;12.63;73.48
46944;BME280;32678;43.852;25.952;2023-02-25T14:29:42;99797.78;;;12.62;72.84
46944;BME280;32678;43.852;25.952;2023-02-25T14:34:47;99818.22;;;12.56;73.50
46944;BME280;32678;43.852;25.952;2023-02-25T14:39:56;99808.47;;;12.74;72.79
46944;BME280;32678;43.852;25.952;2023-02-25T14:45:03;99804.72;;;12.78;72.52
46944;BME280;32678;43.852;25.952;2023-02-25T14:50:10;99797.25;;;12.71;72.78
46944;BME280;32678;43.852;25.952;2023-02-25T14:55:16;99798.81;;;12.75;72.57
46944;BME280;32678;43.852;25.952;2023-02-25T15:05:42;99787.16;;;12.79;72.84
46944;BME280;32678;43.852;25.952;2023-02-25T15:10:54;99794.53;;;12.88;72.59
46944;BME280;32678;43.852;25.952;2023-02-25T15:21:47;99792.94;;;13.15;72.38
46944;BME280;32678;43.852;25.952;2023-02-25T15:26:47;99787.41;;;12.90;72.96
46944;BME280;32678;43.852;25.952;2023-02-25T15:31:48;99773.41;;;12.89;72.78
46944;BME280;32678;43.852;25.952;2023-02-25T15:37:21;99802.16;;;12.92;73.37
46944;BME280;32678;43.852;25.952;2023-02-25T15:47:31;99812.41;;;12.97;73.22
46944;BME280;32678;43.852;25.952;2023-02-25T15:57:43;99824.03;;;12.93;72.63
46944;BME280;32678;43.852;25.952;2023-02-25T16:02:41;99819.78;;;12.90;72.59
46944;BME280;32678;43.852;25.952;2023-02-25T16:07:42;99822.53;;;12.89;71.80
46944;BME280;32678;43.852;25.952;2023-02-25T16:12:40;99827.25;;;12.98;70.85
46944;BME280;32678;43.852;25.952;2023-02-25T16:17:37;99831.34;;;12.88;71.19
46944;BME280;32678;43.852;25.952;2023-02-25T16:22:35;99827.47;;;12.79;71.92
46944;BME280;32678;43.852;25.952;2023-02-25T16:27:40;99815.66;;;12.71;71.83
46944;BME280;32678;43.852;25.952;2023-02-25T16:32:41;99830.09;;;12.79;70.98
46944;BME280;32678;43.852;25.952;2023-02-25T16:37:43;99822.94;;;12.97;69.01
46944;BME280;32678;43.852;25.952;2023-02-25T16:42:41;99832.44;;;12.99;68.48
46944;BME280;32678;43.852;25.952;2023-02-25T16:47:38;99822.69;;;12.86;68.33
46944;BME280;32678;43.852;25.952;2023-02-25T16:52:38;99832.25;;;13.02;67.37
46944;BME280;32678;43.852;25.952;2023-02-25T16:57:37;99831.50;;;13.00;66.96
46944;BME280;32678;43.852;25.952;2023-02-25T17:02:33;99817.59;;;13.14;65.70
46944;BME280;32678;43.852;25.952;2023-02-25T17:07:40;99839.63;;;13.27;65.23
46944;BME280;32678;43.852;25.952;2023-02-25T17:12:49;99830.38;;;13.20;65.26
46944;BME280;32678;43.852;25.952;2023-02-25T17:17:46;99843.19;;;13.26;64.34
46944;BME280;32678;43.852;25.952;2023-02-25T17:22:48;99847.38;;;13.59;63.00
46944;BME280;32678;43.852;25.952;2023-02-25T17:27:45;99844.56;;;13.48;64.05
46944;BME280;32678;43.852;25.952;2023-02-25T17:32:43;99858.00;;;13.13;66.45
46944;BME280;32678;43.852;25.952;2023-02-25T17:37:54;99865.28;;;12.92;67.45
46944;BME280;32678;43.852;25.952;2023-02-25T17:42:53;99861.72;;;13.09;66.73
46944;BME280;32678;43.852;25.952;2023-02-25T17:48:13;99866.22;;;12.91;67.41
46944;BME280;32678;43.852;25.952;2023-02-25T17:53:17;99875.47;;;12.98;67.19
46944;BME280;32678;43.852;25.952;2023-02-25T17:58:21;99877.19;;;12.99;67.44
46944;BME280;32678;43.852;25.952;2023-02-25T18:03:21;99880.88;;;12.95;67.90
46944;BME280;32678;43.852;25.952;2023-02-25T18:08:32;99887.00;;;12.96;68.52
46944;BME280;32678;43.852;25.952;2023-02-25T18:13:45;99881.94;;;12.93;69.21
46944;BME280;32678;43.852;25.952;2023-02-25T18:18:43;99890.59;;;12.79;70.03
46944;BME280;32678;43.852;25.952;2023-02-25T18:23:45;99891.25;;;12.67;70.50
46944;BME280;32678;43.852;25.952;2023-02-25T18:28:43;99901.44;;;12.57;71.06
46944;BME280;32678;43.852;25.952;2023-02-25T18:33:42;99905.47;;;12.80;69.57
46944;BME280;32678;43.852;25.952;2023-02-25T18:38:39;99900.09;;;12.97;68.27
46944;BME280;32678;43.852;25.952;2023-02-25T18:43:41;99913.06;;;13.32;66.37
46944;BME280;32678;43.852;25.952;2023-02-25T18:48:38;99892.19;;;13.29;65.94
46944;BME280;32678;43.852;25.952;2023-02-25T18:53:35;99871.47;;;13.53;64.10
46944;BME280;32678;43.852;25.952;2023-02-25T18:58:35;99852.56;;;13.60;63.85
46944;BME280;32678;43.852;25.952;2023-02-25T19:03:32;99838.19;;;13.66;63.57
46944;BME280;32678;43.852;25.952;2023-02-25T19:08:29;99826.16;;;13.76;63.23
46944;BME280;32678;43.852;25.952;2023-02-25T19:13:28;99818.63;;;13.84;62.36
46944;BME280;32678;43.852;25.952;2023-02-25T19:18:26;99834.44;;;14.12;61.20
46944;BME280;32678;43.852;25.952;2023-02-25T19:23:24;99823.50;;;14.18;60.62
46944;BME280;32678;43.852;25.952;2023-02-25T19:28:21;99827.84;;;14.05;60.90
46944;BME280;32678;43.852;25.952;2023-02-25T19:33:22;99821.56;;;14.22;60.13
46944;BME280;32678;43.852;25.952;2023-02-25T19:38:19;99826.72;;;14.09;60.14
46944;BME280;32678;43.852;25.952;2023-02-25T19:43:16;99840.19;;;14.05;60.10
46944;BME280;32678;43.852;25.952;2023-02-25T19:48:13;99847.03;;;13.79;60.69
46944;BME280;32678;43.852;25.952;2023-02-25T19:53:10;99879.06;;;14.01;60.53
46944;BME280;32678;43.852;25.952;2023-02-25T19:58:09;99866.25;;;14.23;59.44
46944;BME280;32678;43.852;25.952;2023-02-25T20:03:06;99863.63;;;14.52;57.93
46944;BME280;32678;43.852;25.952;2023-02-25T20:08:03;99879.56;;;14.22;58.78
46944;BME280;32678;43.852;25.952;2023-02-25T20:13:01;99897.34;;;14.47;57.90
46944;BME280;32678;43.852;25.952;2023-02-25T20:17:58;99885.19;;;14.30;58.25
46944;BME280;32678;43.852;25.952;2023-02-25T20:22:55;99870.09;;;14.18;58.32
46944;BME280;32678;43.852;25.952;2023-02-25T20:27:52;99883.59;;;14.42;57.82
46944;BME280;32678;43.852;25.952;2023-02-25T20:32:51;99889.63;;;14.44;57.54
46944;BME280;32678;43.852;25.952;2023-02-25T20:38:01;99886.88;;;14.31;57.90
46944;BME280;32678;43.852;25.952;2023-02-25T20:43:03;99900.81;;;14.05;59.95
46944;BME280;32678;43.852;25.952;2023-02-25T20:48:00;99896.47;;;14.04;60.87
46944;BME280;32678;43.852;25.952;2023-02-25T20:52:57;99908.22;;;13.98;61.44
46944;BME280;32678;43.852;25.952;2023-02-25T20:57:54;99903.06;;;13.97;61.52
46944;BME280;32678;43.852;25.952;2023-02-25T21:02:51;99885.25;;;13.86;61.79
46944;BME280;32678;43.852;25.952;2023-02-25T21:07:48;99906.44;;;13.99;61.70
46944;BME280;32678;43.852;25.952;2023-02-25T21:12:47;99884.72;;;13.95;61.82
46944;BME280;32678;43.852;25.952;2023-02-25T21:17:44;99882.06;;;13.95;61.92
46944;BME280;32678;43.852;25.952;2023-02-25T21:22:41;99890.06;;;13.94;61.84
46944;BME280;32678;43.852;25.952;2023-02-25T21:27:38;99885.63;;;13.80;62.46
46944;BME280;32678;43.852;25.952;2023-02-25T21:32:38;99897.00;;;13.80;62.37
46944;BME280;32678;43.852;25.952;2023-02-25T21:37:35;99883.44;;;13.58;62.98
46944;BME280;32678;43.852;25.952;2023-02-25T21:42:32;99903.97;;;13.67;62.89
46944;BME280;32678;43.852;25.952;2023-02-25T21:47:29;99917.91;;;13.54;63.59
46944;BME280;32678;43.852;25.952;2023-02-25T21:52:26;99910.69;;;13.27;64.64
46944;BME280;32678;43.852;25.952;2023-02-25T21:57:24;99898.53;;;13.25;65.07
46944;BME280;32678;43.852;25.952;2023-02-25T22:02:21;99890.75;;;13.23;65.25
46944;BME280;32678;43.852;25.952;2023-02-25T22:07:17;99899.63;;;13.36;64.36
46944;BME280;32678;43.852;25.952;2023-02-25T22:12:14;99887.28;;;13.23;65.19
46944;BME280;32678;43.852;25.952;2023-02-25T22:17:12;99896.00;;;13.23;64.78
46944;BME280;32678;43.852;25.952;2023-02-25T22:22:10;99898.28;;;13.29;64.66
46944;BME280;32678;43.852;25.952;2023-02-25T22:27:10;99907.34;;;13.39;63.98
46944;BME280;32678;43.852;25.952;2023-02-25T22:32:07;99909.84;;;13.11;65.23
46944;BME280;32678;43.852;25.952;2023-02-25T22:37:05;99906.00;;;13.01;65.93
46944;BME280;32678;43.852;25.952;2023-02-25T22:42:01;99903.81;;;13.09;65.63
46944;BME280;32678;43.852;25.952;2023-02-25T22:47:00;99920.22;;;13.14;65.38
46944;BME280;32678;43.852;25.952;2023-02-25T22:51:57;99911.44;;;13.29;64.95
46944;BME280;32678;43.852;25.952;2023-02-25T22:56:55;99913.06;;;13.32;65.02
46944;BME280;32678;43.852;25.952;2023-02-25T23:01:51;99911.59;;;13.42;64.21
46944;BME280;32678;43.852;25.952;2023-02-25T23:06:48;99899.13;;;13.30;64.63
46944;BME280;32678;43.852;25.952;2023-02-25T23:11:46;99885.69;;;13.34;64.16
46944;BME280;32678;43.852;25.952;2023-02-25T23:16:46;99894.44;;;13.35;64.08
46944;BME280;32678;43.852;25.952;2023-02-25T23:21:43;99891.66;;;13.38;63.83
46944;BME280;32678;43.852;25.952;2023-02-25T23:26:40;99902.44;;;13.33;63.74
46944;BME280;32678;43.852;25.952;2023-02-25T23:31:43;99915.50;;;13.35;63.87
46944;BME280;32678;43.852;25.952;2023-02-25T23:36:45;99906.41;;;13.40;63.46
46944;BME280;32678;43.852;25.952;2023-02-25T23:41:42;99912.72;;;13.38;63.84
46944;BME280;32678;43.852;25.952;2023-02-25T23:46:39;99899.44;;;13.39;63.56
46944;BME280;32678;43.852;25.952;2023-02-25T23:51:39;99901.75;;;13.30;64.16
46944;BME280;32678;43.852;25.952;2023-02-25T23:56:39;99896.41;;;13.31;64.42
